Akron Fulton International Airport Akron US
ICAO: KAKR
IATA: AKC
Category: Medium
Scheduled Services: No

Elevation: 1067 ft
TransAlt. 18000 ft.

Airport Communications:
APP/DEP:118.6
ASOS:126.825
CTAF/UNICOM:123.075
CLEVELAND RDO:114.4

KAKR Zoom In..

Runways:

(A) RW 01 length 2337 ft width 100 ft
LOC 110.90 / hdg 8

(B) RW 07 length 6336 ft width 150 ft
LOC 110.90 / hdg 69

(C) RW 19 length 2337 ft width 100 ft
LOC 110.90 / hdg 188

(D) RW 25 length 6336 ft width 150 ft
LOC 110.90 / hdg 249

Location; KAKR
Day. 21 / Time. 23.54 Zulu
* Altimeter: 30.05
* Temperature: 08° c. 46.4°f.
* Wind from: 220° Speed 06 kn.
Dewpoint: 06° c.
Visibility: 10 Statute Miles.
Clouds: Overcast 700 ft.

KAKR 212354Z AUTO 22006KT 10SM OVC007 08/06 A3005 RMK AO2 SLP182 T00830061 10089 20067 51010 $


Wind From 220°
Speed 06 kn.

jpsM music video
CHECK IT OUT

jpsM - It Moves..

 
jpsmedia.com for Web Design  worldairports.se 2018   terms of use